Time;durP1;ratioP1;P1;durP2;ratioP2;P2;SDS_P1;SDS_P2;PMS_P1;PMS_P2;Temp;Humidity;BMP_temperature;BMP_pressure;BME280_temperature;BME280_humidity;BME280_pressure;Samples;Min_cycle;Max_cycle;Signal;HPM_P1;HPM_P2
2023/01/13 00:02:16;;;;;;;2.92;0.80;;;;;;;9.40;82.90;100136.28;4987836;28;20519;-57
2023/01/13 00:04:41;;;;;;;1.48;0.80;;;;;;;9.42;82.85;100139.66;4988508;22;20269;-58
2023/01/13 00:07:07;;;;;;;2.55;0.50;;;;;;;9.41;82.93;100133.59;4962047;28;20702;-56
2023/01/13 00:09:32;;;;;;;1.30;0.70;;;;;;;9.42;82.69;100135.28;4966844;28;20094;-59
2023/01/13 00:11:58;;;;;;;2.53;0.82;;;;;;;9.41;82.78;100136.22;4964017;28;20079;-57
2023/01/13 00:14:25;;;;;;;1.23;0.68;;;;;;;9.42;82.89;100145.78;4958677;28;20090;-58
2023/01/13 00:16:50;;;;;;;10.02;2.33;;;;;;;9.43;82.94;100130.84;4967032;28;20106;-58
2023/01/13 00:19:16;;;;;;;0.68;0.50;;;;;;;9.43;82.80;100139.59;4959449;28;20446;-58
2023/01/13 00:21:42;;;;;;;1.58;0.90;;;;;;;9.41;82.84;100135.34;4966634;28;20083;-60
2023/01/13 00:24:09;;;;;;;1.33;0.73;;;;;;;9.41;83.01;100137.97;4969184;28;20470;-55
2023/01/13 00:26:35;;;;;;;1.30;0.73;;;;;;;9.41;83.01;100130.97;4966483;28;20181;-57
2023/01/13 00:29:00;;;;;;;0.98;0.63;;;;;;;9.41;83.16;100136.22;4963650;28;20217;-57
2023/01/13 00:31:28;;;;;;;1.10;0.70;;;;;;;9.40;83.04;100129.28;4963536;28;20082;-59
2023/01/13 00:34:00;;;;;;;2.00;0.80;;;;;;;9.38;83.20;100125.91;4964716;28;20063;-59
2023/01/13 00:36:26;;;;;;;1.30;0.65;;;;;;;9.39;83.26;100132.84;4965255;28;20137;-61
2023/01/13 00:38:51;;;;;;;1.58;0.70;;;;;;;9.39;83.13;100143.34;4967313;28;20079;-59
2023/01/13 00:41:20;;;;;;;2.55;0.82;;;;;;;9.39;83.31;100135.47;4963439;28;20539;-60
2023/01/13 00:43:46;;;;;;;1.27;0.73;;;;;;;9.39;83.21;100142.47;4953075;28;20099;-61
2023/01/13 00:46:17;;;;;;;0.85;0.47;;;;;;;9.39;83.36;100142.47;4964088;28;20094;-58
2023/01/13 00:48:43;;;;;;;0.80;0.57;;;;;;;9.41;83.14;100145.84;4966081;28;20091;-57
2023/01/13 00:51:15;;;;;;;1.08;0.65;;;;;;;9.43;83.31;100146.59;4962491;28;20079;-61
2023/01/13 00:53:42;;;;;;;;;;;;;;;9.39;83.71;100147.72;4961051;28;20087;-56
2023/01/13 00:56:19;;;;;;;1.20;0.55;;;;;;;9.40;83.36;100150.28;4964078;28;20492;-58
2023/01/13 00:58:45;;;;;;;1.33;0.80;;;;;;;9.41;83.26;100149.34;4961573;28;20078;-57
2023/01/13 01:01:14;;;;;;;1.95;0.65;;;;;;;9.41;83.30;100148.47;4965752;28;20161;-59
2023/01/13 01:03:39;;;;;;;1.23;0.68;;;;;;;9.38;83.33;100146.91;4966683;28;20103;-58
2023/01/13 01:06:11;;;;;;;1.23;0.50;;;;;;;9.38;83.37;100146.03;4968744;28;20098;-61
2023/01/13 01:08:36;;;;;;;0.90;0.60;;;;;;;9.37;83.72;100145.22;4966905;28;20083;-58
2023/01/13 01:11:08;;;;;;;1.98;0.68;;;;;;;9.38;83.62;100140.78;4966762;28;20119;-61
2023/01/13 01:13:34;;;;;;;2.78;0.82;;;;;;;9.39;83.81;100137.22;4968556;28;20083;-60
2023/01/13 01:16:06;;;;;;;6.45;1.00;;;;;;;9.39;83.60;100145.97;4965715;28;20111;-56
2023/01/13 01:18:37;;;;;;;1.02;0.43;;;;;;;9.39;83.67;100148.59;4964199;28;20091;-53
2023/01/13 01:21:04;;;;;;;2.10;1.20;;;;;;;9.37;83.93;100145.22;4967583;28;20091;-57
2023/01/13 01:23:31;;;;;;;1.13;0.60;;;;;;;9.36;83.89;100142.69;4969234;28;20107;-61
2023/01/13 01:26:01;;;;;;;1.50;0.70;;;;;;;9.35;83.85;100136.59;4968543;28;20525;-60
2023/01/13 01:28:27;;;;;;;1.05;0.60;;;;;;;9.32;84.01;100146.44;4967280;28;20082;-58
2023/01/13 01:30:58;;;;;;;6.32;3.30;;;;;;;9.27;84.23;100141.47;4966299;28;20092;-60
2023/01/13 01:33:24;;;;;;;4.70;1.02;;;;;;;9.22;84.19;100146.16;4963685;28;20424;-58
2023/01/13 01:35:50;;;;;;;2.40;1.30;;;;;;;9.17;84.29;100146.44;4964306;28;20094;-59
2023/01/13 01:38:16;;;;;;;1.30;0.65;;;;;;;9.13;84.32;100143.19;4964145;28;20115;-55
2023/01/13 01:40:41;;;;;;;1.17;0.60;;;;;;;9.12;84.42;100141.50;4964223;28;20110;-56
2023/01/13 01:46:04;;;;;;;1.40;0.60;;;;;;;9.15;84.39;100129.94;4965273;28;20105;-57
2023/01/13 01:48:37;;;;;;;3.45;0.80;;;;;;;9.18;84.28;100135.00;4971799;28;20594;-59
2023/01/13 01:51:07;;;;;;;1.33;0.60;;;;;;;9.16;84.20;100126.38;4969615;28;20075;-58
2023/01/13 01:53:33;;;;;;;2.35;0.73;;;;;;;9.14;84.22;100128.25;4965147;28;20114;-61
2023/01/13 01:55:59;;;;;;;2.38;0.98;;;;;;;9.11;84.26;100117.94;4954516;28;20163;-55
2023/01/13 01:58:30;;;;;;;1.52;0.52;;;;;;;9.05;84.08;100113.91;4961073;28;20087;-60
2023/01/13 02:00:56;;;;;;;1.73;0.57;;;;;;;8.99;84.17;100114.31;4956677;28;20472;-58
2023/01/13 02:03:23;;;;;;;1.13;0.90;;;;;;;8.96;84.20;100115.31;4962552;28;20106;-57
2023/01/13 02:05:49;;;;;;;1.60;0.45;;;;;;;8.95;84.37;100118.06;4964376;28;20181;-58
2023/01/13 02:08:14;;;;;;;1.63;0.73;;;;;;;8.98;84.29;100117.88;4961253;28;20091;-58
2023/01/13 02:10:41;;;;;;;1.70;0.80;;;;;;;9.00;84.16;100118.59;4961240;28;20079;-59
2023/01/13 02:13:10;;;;;;;0.93;0.38;;;;;;;9.01;84.07;100109.78;4968694;28;20075;-56
2023/01/13 02:16:04;;;;;;;1.52;0.65;;;;;;;9.00;83.96;100115.97;4964573;28;20095;-61
2023/01/13 02:18:51;;;;;;;0.85;0.60;;;;;;;9.04;84.01;100112.22;4965481;28;20166;-53
2023/01/13 02:21:25;;;;;;;0.77;0.50;;;;;;;9.08;83.56;100108.47;4965742;28;20078;-54
2023/01/13 02:27:40;;;;;;;1.17;0.55;;;;;;;9.10;83.66;100111.00;4964949;28;20074;-54
2023/01/13 02:33:26;;;;;;;1.00;0.47;;;;;;;9.13;83.53;100106.44;4964475;28;20254;-62
2023/01/13 02:35:51;;;;;;;1.38;0.60;;;;;;;9.15;83.34;100109.78;4963137;28;20099;-56
2023/01/13 02:38:22;;;;;;;2.83;0.45;;;;;;;9.18;83.44;100098.25;4965142;28;20068;-60
2023/01/13 02:40:58;;;;;;;2.63;0.98;;;;;;;9.21;83.19;100105.09;4962873;28;20147;-56
2023/01/13 02:46:30;;;;;;;1.20;0.55;;;;;;;9.24;83.12;100097.03;4963115;28;20094;-57
2023/01/13 02:49:00;;;;;;;1.15;0.60;;;;;;;9.27;83.11;100102.94;4962128;28;20162;-57
2023/01/13 02:51:28;;;;;;;1.42;0.60;;;;;;;9.24;83.21;100097.88;4967002;28;20071;-54
2023/01/13 02:53:58;;;;;;;1.42;0.70;;;;;;;9.23;83.27;100095.34;4966789;28;20175;-54
2023/01/13 02:56:25;;;;;;;0.70;0.50;;;;;;;9.22;83.33;100094.53;4966140;28;20079;-58
2023/01/13 02:58:55;;;;;;;0.88;0.47;;;;;;;9.22;83.05;100088.41;4963666;28;20544;-55
2023/01/13 03:01:21;;;;;;;4.25;0.70;;;;;;;9.22;83.13;100091.91;4963008;28;20139;-58
2023/01/13 03:03:48;;;;;;;2.00;0.68;;;;;;;9.20;83.15;100091.13;4957418;28;20113;-57
2023/01/13 03:06:38;;;;;;;1.95;0.47;;;;;;;9.16;83.23;100097.50;4963209;28;20064;-58
2023/01/13 03:09:15;;;;;;;1.67;0.65;;;;;;;9.13;83.34;100095.94;4953726;28;20473;-56
2023/01/13 03:12:10;;;;;;;1.42;0.77;;;;;;;9.12;83.23;100093.38;4962670;28;20868;-57
2023/01/13 03:14:44;;;;;;;0.95;0.50;;;;;;;9.12;83.25;100094.25;4952055;28;20103;-55
2023/01/13 03:17:36;;;;;;;1.33;0.80;;;;;;;9.12;83.28;100094.25;4964982;28;20190;-60
2023/01/13 03:20:07;;;;;;;0.77;0.60;;;;;;;9.11;83.06;100091.69;4966234;28;20201;-53
2023/01/13 03:22:40;;;;;;;2.42;0.95;;;;;;;9.09;83.04;100090.94;4963556;28;20083;-58
2023/01/13 03:25:21;;;;;;;0.73;0.50;;;;;;;9.07;83.13;100098.09;4959162;28;20099;-56
2023/01/13 03:27:54;;;;;;;0.73;0.40;;;;;;;9.05;83.02;100087.66;4967017;28;20077;-56
2023/01/13 03:30:52;;;;;;;0.80;0.43;;;;;;;9.05;82.84;100087.66;4965540;28;20080;-56
2023/01/13 03:33:27;;;;;;;1.55;0.60;;;;;;;9.08;82.97;100086.63;4967706;28;20151;-54
2023/01/13 03:35:58;;;;;;;3.38;1.30;;;;;;;9.10;82.89;100075.13;4966846;28;20150;-57
2023/01/13 03:38:38;;;;;;;0.45;0.40;;;;;;;9.13;82.66;100074.94;4966234;28;20130;-57
2023/01/13 03:41:16;;;;;;;1.35;0.70;;;;;;;9.15;82.66;100075.66;4954053;28;20589;-53
2023/01/13 03:46:49;;;;;;;0.70;0.70;;;;;;;9.17;82.39;100087.84;4966034;28;20122;-56
2023/01/13 03:49:21;;;;;;;1.52;0.40;;;;;;;9.23;82.14;100080.44;4962374;28;20119;-57
2023/01/13 03:51:52;;;;;;;0.98;0.52;;;;;;;9.25;82.26;100083.81;4962944;28;20099;-53
2023/01/13 03:54:20;;;;;;;0.75;0.43;;;;;;;9.25;82.02;100083.81;4964533;28;20210;-55
2023/01/13 03:56:50;;;;;;;1.45;0.50;;;;;;;9.28;81.99;100078.38;4962059;28;20111;-53
2023/01/13 03:59:20;;;;;;;2.08;0.50;;;;;;;9.30;81.97;100092.25;4956853;28;20091;-57
2023/01/13 04:02:01;;;;;;;1.15;0.60;;;;;;;9.30;81.97;100076.50;4967831;28;20083;-53
2023/01/13 04:04:35;;;;;;;0.65;0.50;;;;;;;9.32;81.61;100072.94;4969424;28;20095;-55
2023/01/13 04:07:16;;;;;;;0.52;0.30;;;;;;;9.31;81.68;100079.94;4967994;28;20128;-53
2023/01/13 04:09:51;;;;;;;0.52;0.30;;;;;;;9.33;81.75;100079.88;4966626;28;20071;-55
2023/01/13 04:12:21;;;;;;;1.30;0.50;;;;;;;9.33;81.55;100064.94;4967767;28;20081;-53
2023/01/13 04:14:47;;;;;;;1.90;0.60;;;;;;;9.31;81.42;100066.81;4963566;28;20095;-59
2023/01/13 04:17:12;;;;;;;1.15;0.50;;;;;;;9.32;81.52;100068.50;4958122;28;20079;-60
2023/01/13 04:19:38;;;;;;;0.60;0.40;;;;;;;9.31;81.52;100079.94;4956776;28;20597;-54
2023/01/13 04:22:03;;;;;;;1.25;0.40;;;;;;;9.32;81.38;100067.69;4965066;28;20103;-54
2023/01/13 04:24:28;;;;;;;0.50;0.30;;;;;;;9.28;81.22;100061.78;4967038;28;20099;-55
2023/01/13 04:26:55;;;;;;;0.47;0.30;;;;;;;9.28;81.47;100065.25;4966560;28;20145;-55
2023/01/13 04:29:21;;;;;;;0.30;0.20;;;;;;;9.29;81.24;100064.28;4958816;28;20076;-55
2023/01/13 04:31:47;;;;;;;3.65;0.43;;;;;;;9.30;81.35;100066.00;4963916;28;20088;-55
2023/01/13 04:34:12;;;;;;;0.93;0.40;;;;;;;9.31;81.26;100051.06;4965124;28;20091;-57
2023/01/13 04:36:38;;;;;;;0.65;0.35;;;;;;;9.33;81.27;100051.81;4964391;28;20102;-56
2023/01/13 04:39:03;;;;;;;1.88;0.30;;;;;;;9.35;80.88;100051.72;4961651;28;20101;-57
2023/01/13 04:41:56;;;;;;;0.47;0.40;;;;;;;9.35;80.80;100046.47;4963131;28;20178;-59
2023/01/13 04:44:17;;;;;;;0.57;0.38;;;;;;;9.38;80.79;100047.13;4962578;28;20110;-57
2023/01/13 04:46:43;;;;;;;2.03;0.32;;;;;;;9.41;80.74;100051.31;4965621;28;20086;-55
2023/01/13 04:49:08;;;;;;;0.85;0.20;;;;;;;9.44;80.58;100046.75;4961619;28;20087;-56
2023/01/13 04:51:33;;;;;;;1.30;0.20;;;;;;;9.48;80.36;100047.38;4965445;28;20083;-55
2023/01/13 04:53:59;;;;;;;0.52;0.30;;;;;;;9.49;80.19;100042.97;4958781;28;20091;-60
2023/01/13 04:56:24;;;;;;;1.30;0.50;;;;;;;9.49;80.39;100048.19;4966553;28;20090;-61
2023/01/13 04:58:50;;;;;;;0.75;0.38;;;;;;;9.53;80.14;100065.47;4966417;28;20067;-57
2023/01/13 05:01:15;;;;;;;0.45;0.30;;;;;;;9.55;79.94;100072.28;4968171;28;20541;-57
2023/01/13 05:03:40;;;;;;;1.17;0.40;;;;;;;9.58;79.83;100073.91;4964695;28;22769;-59
2023/01/13 05:06:06;;;;;;;0.98;0.30;;;;;;;9.63;79.62;100079.69;4964192;28;20543;-60
2023/01/13 05:08:31;;;;;;;0.70;0.30;;;;;;;9.64;79.39;100102.38;4959542;28;20083;-59
2023/01/13 05:11:00;;;;;;;0.85;0.30;;;;;;;9.65;79.27;100111.13;4963761;28;20546;-58
2023/01/13 05:18:55;;;;;;;0.77;0.35;;;;;;;9.65;79.25;100106.69;4962645;28;20149;-55
2023/01/13 05:26:49;;;;;;;1.48;0.60;;;;;;;9.50;79.25;100113.78;4968864;28;20174;-59
2023/01/13 05:29:14;;;;;;;0.57;0.30;;;;;;;9.42;79.44;100116.91;4968742;28;20527;-57
2023/01/13 05:31:40;;;;;;;1.45;0.50;;;;;;;9.35;79.44;100120.81;4955726;28;20084;-58
2023/01/13 05:34:05;;;;;;;1.42;0.30;;;;;;;9.25;79.78;100119.72;4958714;28;20189;-56
2023/01/13 05:36:31;;;;;;;1.58;0.68;;;;;;;9.17;79.99;100129.84;4969749;28;20079;-58
2023/01/13 05:38:56;;;;;;;1.40;0.55;;;;;;;9.12;80.02;100125.75;4965192;28;20994;-56
2023/01/13 05:44:06;;;;;;;2.90;0.45;;;;;;;9.09;80.14;100138.19;4965077;28;20114;-57
2023/01/13 05:46:31;;;;;;;1.52;0.70;;;;;;;9.02;80.17;100131.63;4964539;28;20079;-60
2023/01/13 05:48:59;;;;;;;2.67;0.70;;;;;;;8.94;80.30;100124.22;4967164;28;20090;-60
2023/01/13 05:51:25;;;;;;;0.65;0.55;;;;;;;8.88;80.58;100130.69;4966334;28;20106;-60
2023/01/13 05:53:53;;;;;;;1.13;0.47;;;;;;;8.87;80.70;100130.78;4969891;28;20427;-59
2023/01/13 05:56:19;;;;;;;0.85;0.43;;;;;;;8.82;80.74;100137.16;4962412;28;20081;-60
2023/01/13 05:58:44;;;;;;;1.67;0.70;;;;;;;8.79;80.96;100129.47;4969417;28;20161;-60
2023/01/13 06:01:10;;;;;;;0.80;0.50;;;;;;;8.75;81.01;100141.06;4964298;28;20137;-58
2023/01/13 06:03:36;;;;;;;1.13;0.40;;;;;;;8.80;81.00;100141.66;4965244;28;20145;-56
2023/01/13 06:06:02;;;;;;;0.88;0.38;;;;;;;8.89;80.77;100139.41;4963771;28;20098;-61
2023/01/13 06:08:29;;;;;;;0.82;0.30;;;;;;;8.93;80.58;100148.78;4970218;28;20087;-58
2023/01/13 06:10:55;;;;;;;2.95;0.55;;;;;;;8.97;80.30;100147.66;4981480;22;20138;-52
2023/01/13 06:13:20;;;;;;;0.93;0.45;;;;;;;9.03;80.25;100151.69;4972630;28;20075;-53
2023/01/13 06:15:46;;;;;;;1.00;0.40;;;;;;;9.10;80.15;100163.50;4970685;28;20083;-54
2023/01/13 06:18:11;;;;;;;0.60;0.40;;;;;;;9.17;79.91;100161.34;4969225;28;20449;-52
2023/01/13 06:20:37;;;;;;;1.13;0.40;;;;;;;9.22;79.89;100167.16;4965759;28;20307;-52
2023/01/13 06:23:02;;;;;;;0.22;0.22;;;;;;;9.26;79.68;100163.41;4964228;28;20083;-52
2023/01/13 06:25:41;;;;;;;1.42;0.40;;;;;;;9.29;79.56;100169.31;4970238;28;20099;-51
2023/01/13 06:28:07;;;;;;;4.72;2.10;;;;;;;9.33;79.57;100169.97;4962080;28;20078;-53
2023/01/13 06:30:43;;;;;;;0.80;0.52;;;;;;;9.38;79.46;100174.94;4968252;28;20095;-54
2023/01/13 06:33:14;;;;;;;0.82;0.32;;;;;;;9.41;79.30;100172.13;4969815;28;20093;-51
2023/01/13 06:35:44;;;;;;;2.08;0.32;;;;;;;9.43;79.14;100168.47;4968350;28;20485;-54
2023/01/13 06:38:13;;;;;;;1.15;0.40;;;;;;;9.45;79.04;100165.75;4971506;28;20079;-54
2023/01/13 06:40:41;;;;;;;1.08;0.30;;;;;;;9.45;79.08;100163.94;4966765;28;20110;-53
2023/01/13 06:43:15;;;;;;;2.38;0.47;;;;;;;9.45;79.02;100152.59;4971399;28;20110;-53
2023/01/13 06:45:51;;;;;;;1.63;0.80;;;;;;;9.46;78.82;100164.81;4970030;28;20082;-53
2023/01/13 06:48:18;;;;;;;5.88;1.02;;;;;;;9.46;78.90;100163.00;4970452;28;20074;-56
2023/01/13 06:50:44;;;;;;;1.88;1.08;;;;;;;9.49;78.74;100171.63;4967155;28;20087;-52
2023/01/13 06:53:10;;;;;;;1.20;0.50;;;;;;;9.50;78.76;100171.56;4972050;28;20098;-55
2023/01/13 06:55:36;;;;;;;0.95;0.45;;;;;;;9.50;78.77;100158.44;4967460;28;20126;-54
2023/01/13 06:58:01;;;;;;;2.80;0.70;;;;;;;9.50;78.70;100141.81;4973276;28;20178;-52
2023/01/13 07:00:27;;;;;;;2.40;0.60;;;;;;;9.47;78.88;100140.22;4973631;28;20520;-55
2023/01/13 07:02:53;;;;;;;2.35;0.47;;;;;;;9.45;78.95;100142.94;4961215;28;20186;-57
2023/01/13 07:05:19;;;;;;;0.70;0.40;;;;;;;9.45;78.96;100148.19;4968642;28;20087;-54
2023/01/13 07:07:44;;;;;;;2.17;0.85;;;;;;;9.44;78.67;100149.16;4971322;28;20103;-52
2023/01/13 07:10:12;;;;;;;0.73;0.32;;;;;;;9.45;78.92;100171.81;4969136;28;20158;-55
2023/01/13 07:15:24;;;;;;;3.75;0.70;;;;;;;9.45;78.74;100190.22;4970048;28;20094;-52
2023/01/13 07:17:51;;;;;;;2.97;0.68;;;;;;;9.46;78.54;100185.81;4969039;28;20171;-52
2023/01/13 07:20:17;;;;;;;3.78;0.82;;;;;;;9.46;78.40;100191.91;4966835;28;20079;-55
2023/01/13 07:22:43;;;;;;;1.25;0.50;;;;;;;9.45;78.39;100179.69;4965232;28;20105;-53
2023/01/13 07:25:09;;;;;;;4.20;1.05;;;;;;;9.45;78.20;100189.38;4971397;28;20459;-53
2023/01/13 07:27:34;;;;;;;1.02;0.60;;;;;;;9.44;78.05;100180.66;4970971;28;20106;-55
2023/01/13 07:30:00;;;;;;;1.70;0.70;;;;;;;9.45;77.87;100173.63;4969589;28;20080;-53
2023/01/13 07:32:25;;;;;;;6.07;1.33;;;;;;;9.43;77.89;100170.25;4970445;28;20114;-51
2023/01/13 07:34:51;;;;;;;2.95;0.60;;;;;;;9.40;77.93;100176.53;4967044;28;20087;-54
2023/01/13 07:37:16;;;;;;;2.63;1.15;;;;;;;9.38;77.75;100183.66;4969050;28;20082;-54
2023/01/13 07:39:44;;;;;;;2.63;0.70;;;;;;;9.39;77.34;100187.97;4962931;28;20087;-53
2023/01/13 07:44:53;;;;;;;2.17;0.70;;;;;;;9.37;77.61;100208.22;4962436;28;20137;-51
2023/01/13 07:47:22;;;;;;;1.17;0.70;;;;;;;9.37;77.51;100218.72;4965803;28;20177;-55
2023/01/13 07:49:47;;;;;;;3.25;0.80;;;;;;;9.39;77.36;100206.34;4967421;28;20080;-56
2023/01/13 07:52:13;;;;;;;3.65;0.75;;;;;;;9.40;77.30;100202.78;4969603;28;20099;-55
2023/01/13 07:54:38;;;;;;;7.53;3.20;;;;;;;9.40;77.21;100197.53;4965610;28;20079;-55
2023/01/13 07:57:04;;;;;;;5.47;1.58;;;;;;;9.41;77.30;100190.50;4960964;28;20515;-53
2023/01/13 07:59:29;;;;;;;5.13;0.70;;;;;;;9.42;77.17;100190.41;4967733;28;20102;-54
2023/01/13 08:01:55;;;;;;;3.05;0.75;;;;;;;9.44;77.09;100167.53;4965202;28;20102;-51
2023/01/13 08:04:21;;;;;;;10.10;1.50;;;;;;;9.45;77.10;100178.88;4971640;28;20145;-55
2023/01/13 08:06:47;;;;;;;4.30;1.50;;;;;;;9.46;77.10;100196.31;4964765;28;20122;-58
2023/01/13 08:09:12;;;;;;;3.92;1.35;;;;;;;9.45;77.11;100215.63;4965380;28;20076;-56
2023/01/13 08:11:38;;;;;;;2.22;0.80;;;;;;;9.41;77.20;100225.50;4970148;28;20114;-56
2023/01/13 08:14:03;;;;;;;3.03;1.00;;;;;;;9.35;77.21;100189.09;4970097;28;20079;-55
2023/01/13 08:16:32;;;;;;;3.97;0.98;;;;;;;9.34;77.36;100197.91;4970579;28;20079;-56
2023/01/13 08:18:57;;;;;;;4.43;0.82;;;;;;;9.34;77.38;100195.28;4965112;28;20148;-54
2023/01/13 08:21:23;;;;;;;4.15;0.73;;;;;;;9.30;77.43;100181.50;4970085;28;20189;-53
2023/01/13 08:23:49;;;;;;;4.30;0.80;;;;;;;9.25;77.46;100190.59;4967637;28;20099;-54
2023/01/13 08:26:16;;;;;;;2.90;0.60;;;;;;;9.19;77.48;100210.19;4969257;28;20079;-53
2023/01/13 08:28:42;;;;;;;4.85;0.90;;;;;;;9.10;77.64;100206.34;4966580;28;20174;-56
2023/01/13 08:31:14;;;;;;;3.95;1.00;;;;;;;9.02;77.72;100207.75;4968949;28;20186;-54
2023/01/13 08:33:40;;;;;;;;;;;;;;;8.88;77.92;100205.94;4970601;28;20556;-53
2023/01/13 08:36:08;;;;;;;3.58;1.10;;;;;;;8.89;77.98;100212.88;4967384;28;19971;-54
2023/01/13 08:38:35;;;;;;;3.10;0.60;;;;;;;8.89;77.98;100207.63;4968827;28;20087;-54
2023/01/13 08:41:06;;;;;;;7.72;0.80;;;;;;;8.92;77.70;100207.44;4967816;28;20099;-54
2023/01/13 08:43:32;;;;;;;2.08;0.88;;;;;;;8.91;77.50;100213.63;4968034;28;20178;-56
2023/01/13 08:46:00;;;;;;;4.53;1.10;;;;;;;8.90;77.59;100220.66;4968561;28;20089;-53
2023/01/13 08:48:27;;;;;;;4.10;0.90;;;;;;;8.93;77.76;100230.13;4968568;28;20075;-54
2023/01/13 08:50:53;;;;;;;4.78;0.68;;;;;;;8.98;77.86;100234.16;4970217;28;20190;-53
2023/01/13 08:53:19;;;;;;;5.97;1.05;;;;;;;9.06;77.77;100228.47;4968380;28;20087;-53
2023/01/13 08:55:45;;;;;;;2.97;0.90;;;;;;;9.12;77.62;100241.22;4968369;28;20137;-52
2023/01/13 08:58:11;;;;;;;5.40;0.80;;;;;;;9.19;77.51;100244.34;4967961;28;20075;-53
2023/01/13 09:00:37;;;;;;;3.72;0.60;;;;;;;9.25;77.55;100248.38;4965324;28;20099;-51
2023/01/13 09:03:03;;;;;;;1.90;0.75;;;;;;;9.32;77.44;100243.59;4966872;28;20599;-53
2023/01/13 09:05:29;;;;;;;2.78;0.60;;;;;;;9.38;77.40;100244.06;4966097;28;20162;-52
2023/01/13 09:07:54;;;;;;;6.95;1.30;;;;;;;9.44;77.24;100245.47;4966744;28;20481;-52
2023/01/13 09:10:20;;;;;;;4.45;0.80;;;;;;;9.51;77.25;100240.69;4965651;28;20122;-53
2023/01/13 09:15:29;;;;;;;6.88;1.60;;;;;;;9.67;77.20;100236.16;4965517;28;20545;-53
2023/01/13 09:17:54;;;;;;;5.05;2.00;;;;;;;9.71;77.18;100242.94;4968231;28;20083;-53
2023/01/13 09:20:20;;;;;;;13.13;4.25;;;;;;;9.71;77.21;100253.44;4965972;28;20135;-53
2023/01/13 09:22:45;;;;;;;6.75;2.75;;;;;;;9.70;77.17;100240.38;4960942;28;20090;-54
2023/01/13 09:25:11;;;;;;;5.53;1.88;;;;;;;9.68;77.34;100237.84;4968702;28;20178;-53
2023/01/13 09:27:37;;;;;;;4.93;1.38;;;;;;;9.71;77.32;100248.19;4966975;28;20125;-51
2023/01/13 09:30:03;;;;;;;4.72;1.17;;;;;;;9.73;77.47;100261.22;4969494;28;20170;-54
2023/01/13 09:32:29;;;;;;;2.30;0.90;;;;;;;9.75;77.49;100260.19;4968955;28;20099;-52
2023/01/13 09:35:00;;;;;;;1.80;0.95;;;;;;;9.75;77.62;100254.94;4966438;28;20158;-53
2023/01/13 09:37:33;;;;;;;4.55;1.17;;;;;;;9.74;77.63;100250.63;4961921;28;20086;-51
2023/01/13 09:39:59;;;;;;;3.25;1.13;;;;;;;9.75;77.76;100247.06;4959741;28;20199;-52
2023/01/13 09:45:16;;;;;;;4.95;1.00;;;;;;;9.79;77.62;100212.69;4963475;28;20279;-53
2023/01/13 09:47:50;;;;;;;4.03;1.08;;;;;;;9.79;77.86;100194.28;4959307;28;20134;-51
2023/01/13 09:50:27;;;;;;;3.22;0.88;;;;;;;9.72;77.85;100189.44;4964142;28;20076;-53
2023/01/13 09:52:53;;;;;;;3.35;1.08;;;;;;;9.74;78.01;100207.72;4960782;28;20102;-52
2023/01/13 09:55:23;;;;;;;6.97;3.10;;;;;;;9.72;78.12;100186.81;4968470;28;20095;-51
2023/01/13 09:57:48;;;;;;;6.82;2.55;;;;;;;9.69;78.17;100173.00;4964433;28;20115;-51
2023/01/13 10:00:43;;;;;;;5.82;2.17;;;;;;;9.67;78.36;100182.78;4967872;28;20497;-54
2023/01/13 10:03:29;;;;;;;8.68;3.70;;;;;;;9.64;78.30;100146.22;4965713;28;20079;-52
2023/01/13 10:06:05;;;;;;;3.28;0.75;;;;;;;9.66;78.66;100208.22;4967868;28;20079;-54
2023/01/13 10:08:32;;;;;;;4.00;1.00;;;;;;;9.70;78.24;100199.19;4959448;28;20102;-53
2023/01/13 10:13:12;;;;;;;4.20;1.27;;;;;;;9.74;78.13;100189.34;4969795;28;20135;-52
2023/01/13 10:13:51;;;;;;;3.95;1.58;;;;;;;9.80;77.91;100193.34;4964991;28;20170;-53
2023/01/13 10:16:41;;;;;;;3.95;2.08;;;;;;;9.82;77.79;100196.72;4963708;28;20108;-52
2023/01/13 10:19:21;;;;;;;6.70;2.28;;;;;;;9.86;77.53;100191.19;4968146;28;20075;-54
2023/01/13 10:21:50;;;;;;;4.90;2.83;;;;;;;9.88;77.52;100188.47;4971506;28;20098;-53
2023/01/13 10:24:24;;;;;;;3.28;1.42;;;;;;;9.82;77.50;100196.72;4971753;28;20155;-52
2023/01/13 10:26:59;;;;;;;5.28;1.10;;;;;;;9.74;77.68;100200.72;4968765;28;20070;-54
2023/01/13 10:29:27;;;;;;;2.60;0.80;;;;;;;9.63;77.70;100187.38;4970588;28;20075;-52
2023/01/13 10:31:54;;;;;;;4.10;0.85;;;;;;;9.53;78.09;100188.91;4965162;28;20512;-52
2023/01/13 10:34:22;;;;;;;3.78;1.00;;;;;;;9.42;78.17;100200.94;4960648;28;20068;-54
2023/01/13 10:37:05;;;;;;;0.95;0.47;;;;;;;9.35;78.22;100194.34;4961055;28;20086;-53
2023/01/13 10:39:55;;;;;;;1.90;0.82;;;;;;;9.30;78.36;100189.38;4968635;28;20169;-53
2023/01/13 10:42:22;;;;;;;3.47;1.20;;;;;;;9.29;78.42;100189.50;4968671;28;20091;-53
2023/01/13 10:44:54;;;;;;;5.88;2.20;;;;;;;9.30;78.34;100184.13;4970355;28;20110;-53
2023/01/13 10:47:25;;;;;;;12.37;3.13;;;;;;;9.29;78.13;100177.19;4967584;28;20071;-52
2023/01/13 10:50:04;;;;;;;2.08;0.82;;;;;;;9.31;77.78;100184.97;4970290;28;20322;-53
2023/01/13 10:52:32;;;;;;;2.45;0.80;;;;;;;9.34;77.68;100191.81;4968720;28;20538;-51
2023/01/13 10:54:57;;;;;;;2.28;0.75;;;;;;;9.36;77.63;100197.84;4971616;28;20453;-52
2023/01/13 10:57:25;;;;;;;2.53;0.63;;;;;;;9.37;77.26;100195.09;4967107;28;20071;-54
2023/01/13 10:59:52;;;;;;;2.33;0.50;;;;;;;9.41;77.05;100199.22;4967859;28;20083;-52
2023/01/13 11:02:29;;;;;;;5.28;2.22;;;;;;;9.43;76.86;100200.00;4968599;28;20194;-54
2023/01/13 11:04:59;;;;;;;1.92;0.52;;;;;;;9.41;76.92;100193.97;4970037;28;20538;-53
2023/01/13 11:07:51;;;;;;;1.80;0.50;;;;;;;9.41;76.57;100201.84;4967785;28;20562;-55
2023/01/13 11:10:22;;;;;;;4.18;0.60;;;;;;;9.45;76.38;100200.72;4971176;28;20067;-53
2023/01/13 11:13:13;;;;;;;1.67;0.43;;;;;;;9.56;75.87;100202.69;4970792;28;20134;-54
2023/01/13 11:16:16;;;;;;;4.57;1.30;;;;;;;9.64;75.64;100204.81;4968661;28;20109;-52
2023/01/13 11:19:12;;;;;;;4.72;1.33;;;;;;;9.62;75.68;100196.19;4968656;28;20079;-53
2023/01/13 11:21:48;;;;;;;2.13;0.70;;;;;;;9.59;75.67;100196.41;4964921;28;20130;-53
2023/01/13 11:24:28;;;;;;;2.95;0.80;;;;;;;9.56;75.63;100193.97;4971125;28;20490;-55
2023/01/13 11:27:03;;;;;;;1.65;0.25;;;;;;;9.58;75.52;100202.59;4970403;28;20083;-56
2023/01/13 11:29:40;;;;;;;3.63;0.70;;;;;;;9.60;75.31;100198.09;4970077;28;20107;-52
2023/01/13 11:32:13;;;;;;;3.33;0.60;;;;;;;9.59;75.38;100197.25;4967936;28;20566;-53
2023/01/13 11:34:43;;;;;;;5.07;1.00;;;;;;;9.59;75.17;100202.50;4966332;28;20083;-55
2023/01/13 11:37:31;;;;;;;3.70;0.80;;;;;;;9.59;74.77;100199.03;4971803;28;20079;-55
2023/01/13 11:40:13;;;;;;;8.30;0.80;;;;;;;9.68;74.69;100200.25;4966080;28;20170;-52
2023/01/13 11:42:44;;;;;;;2.60;0.68;;;;;;;9.76;74.35;100209.31;4969090;28;20087;-54
2023/01/13 11:45:17;;;;;;;1.02;0.52;;;;;;;9.84;74.08;100205.38;4968343;28;20087;-51
2023/01/13 11:47:50;;;;;;;3.95;0.75;;;;;;;9.85;74.28;100210.50;4969456;28;20550;-53
2023/01/13 11:50:27;;;;;;;1.23;0.40;;;;;;;9.86;74.06;100198.22;4968377;28;20075;-53
2023/01/13 11:53:11;;;;;;;3.33;0.70;;;;;;;9.76;74.19;100193.53;4966203;28;20079;-54
2023/01/13 11:56:09;;;;;;;3.22;0.80;;;;;;;9.81;74.18;100192.41;4961536;28;20605;-53
2023/01/13 11:59:00;;;;;;;1.60;0.75;;;;;;;9.88;73.69;100198.97;4969718;28;20117;-53
2023/01/13 12:01:53;;;;;;;2.95;0.73;;;;;;;9.96;73.75;100188.81;4968921;28;20099;-52
2023/01/13 12:04:21;;;;;;;3.70;1.35;;;;;;;9.99;73.65;100190.38;4968557;28;20222;-53
2023/01/13 12:06:57;;;;;;;7.05;1.05;;;;;;;10.03;73.58;100190.13;4970137;28;20191;-54
2023/01/13 12:09:43;;;;;;;2.20;0.93;;;;;;;10.05;73.41;100193.50;4971803;28;20157;-52
2023/01/13 12:12:26;;;;;;;7.30;1.00;;;;;;;10.09;73.52;100203.78;4969093;28;20102;-54
2023/01/13 12:15:19;;;;;;;4.05;0.70;;;;;;;10.10;73.08;100202.84;4961209;28;20079;-52
2023/01/13 12:18:10;;;;;;;3.75;1.60;;;;;;;10.14;72.83;100206.97;4964221;28;20087;-52
2023/01/13 12:21:09;;;;;;;4.82;1.75;;;;;;;10.23;72.67;100206.38;4969584;28;20531;-53
2023/01/13 12:23:37;;;;;;;3.47;1.13;;;;;;;10.25;72.70;100206.28;4977796;23;20119;-56
2023/01/13 12:26:10;;;;;;;3.35;0.60;;;;;;;10.21;72.66;100208.25;4961452;28;20082;-57
2023/01/13 12:28:47;;;;;;;7.03;1.02;;;;;;;10.11;72.51;100197.50;4960115;28;20098;-62
2023/01/13 12:31:17;;;;;;;2.88;1.48;;;;;;;10.09;72.83;100199.41;4961924;28;20075;-57